Melissa RD121's Hourly Summary for Tuesday, July 10, 2018
Hour Temp
(f)
RH
(%)
Solar Rad.
(MJ/m2)
Rainfall
(in)
Wind
(mph)
7/10/2018 12:00 AM 75 89 0 0 0.03
7/10/2018 1:00 AM 74 92 0 0 0
7/10/2018 2:00 AM 74 94 0 0 0
7/10/2018 3:00 AM 74 94 0 0 0
7/10/2018 4:00 AM 73 95 0 0 0
7/10/2018 5:00 AM 73 95 0 0 0.32
7/10/2018 6:00 AM 73 94 0.03 0 0
7/10/2018 7:00 AM 73 93 0.15 0 0
7/10/2018 8:00 AM 75 89 0.53 0 0
7/10/2018 9:00 AM 77 79 0.76 0 0
7/10/2018 10:00 AM 81 63 2.13 0 0.59
7/10/2018 11:00 AM 85 51 2.87 0 0.19
7/10/2018 12:00 PM 88 48 3.22 0 0.16
7/10/2018 1:00 PM 89 46 2.63 0 0.36
7/10/2018 2:00 PM 91 42 3.17 0 0.45
7/10/2018 3:00 PM 91 42 2.18 0 1.46
7/10/2018 4:00 PM 89 45 0.49 0 2.15
7/10/2018 5:00 PM 85 50 0.5 0 9.48
7/10/2018 6:00 PM 83 61 0.37 0 1.82
7/10/2018 7:00 PM 83 61 0.21 0 0
7/10/2018 8:00 PM 83 61 0.02 0 0
7/10/2018 9:00 PM 81 63 0 0 0
7/10/2018 10:00 PM 80 66 0 0 0.03
7/10/2018 11:00 PM 78 72 0 0 0
Data Summary 80 70 19.26 0.00 0.71